createdAt,value
2019-06-20T00:00:08.266Z,19.25
2019-06-20T00:01:08.291Z,18.49
2019-06-20T00:02:08.122Z,17.91
2019-06-20T00:03:08.056Z,17.54
2019-06-20T00:04:07.979Z,17.21
2019-06-20T00:05:07.913Z,17.15
2019-06-20T00:06:07.893Z,17.25
2019-06-20T00:07:07.768Z,17.10
2019-06-20T00:08:07.693Z,16.88
2019-06-20T00:09:07.622Z,16.80
2019-06-20T00:10:07.548Z,16.89
2019-06-20T00:11:07.489Z,16.63
2019-06-20T00:12:07.424Z,16.63
2019-06-20T00:13:07.333Z,16.63
2019-06-20T00:14:07.262Z,16.65
2019-06-20T00:15:07.199Z,16.48
2019-06-20T00:16:07.118Z,16.52
2019-06-20T00:17:07.089Z,16.57
2019-06-20T00:18:06.970Z,16.63
2019-06-20T00:19:06.898Z,16.63
2019-06-20T00:20:06.825Z,16.77
2019-06-20T00:21:06.858Z,16.92
2019-06-20T00:22:06.678Z,16.99
2019-06-20T00:23:06.609Z,17.03
2019-06-20T00:24:06.530Z,17.08
2019-06-20T00:26:53.875Z,17.23
2019-06-20T00:27:53.803Z,17.20
2019-06-20T00:28:53.746Z,17.21
2019-06-20T00:29:53.656Z,17.28
2019-06-20T00:30:53.583Z,17.32
2019-06-20T00:31:53.521Z,17.43
2019-06-20T00:32:53.436Z,17.39
2019-06-20T00:33:53.362Z,17.40
2019-06-20T00:34:53.291Z,17.47
2019-06-20T00:35:53.217Z,17.55
2019-06-20T00:36:53.475Z,17.55
2019-06-20T00:37:53.070Z,17.51
2019-06-20T00:38:52.999Z,17.66
2019-06-20T00:39:52.923Z,17.60
2019-06-20T00:40:52.849Z,17.54
2019-06-20T00:41:53.999Z,17.70
2019-06-20T00:42:52.706Z,17.67
2019-06-20T00:43:52.630Z,17.66
2019-06-20T00:44:52.568Z,17.60
2019-06-20T00:45:52.492Z,17.60
2019-06-20T00:46:52.412Z,17.60
2019-06-20T00:47:52.340Z,17.73
2019-06-20T00:48:52.264Z,17.69
2019-06-20T00:49:52.191Z,17.67
2019-06-20T00:50:52.118Z,17.58
2019-06-20T00:51:52.044Z,17.69
2019-06-20T00:52:51.971Z,17.63
2019-06-20T00:53:51.898Z,17.74
2019-06-20T00:54:51.826Z,17.70
2019-06-20T00:55:51.752Z,17.73
2019-06-20T00:56:51.680Z,17.71
2019-06-20T00:57:51.607Z,17.74
2019-06-20T00:58:51.534Z,17.74
2019-06-20T00:59:51.662Z,17.74
2019-06-20T01:00:51.412Z,17.77
2019-06-20T01:01:51.314Z,17.74
2019-06-20T01:02:51.270Z,17.71
2019-06-20T01:03:51.195Z,17.73
2019-06-20T01:04:51.098Z,17.71
2019-06-20T01:05:51.229Z,17.76
2019-06-20T01:06:51.153Z,17.70
2019-06-20T01:07:50.879Z,17.67
2019-06-20T01:08:50.804Z,17.69
2019-06-20T01:09:50.731Z,17.76
2019-06-20T01:10:50.658Z,17.73
2019-06-20T01:11:50.586Z,17.66
2019-06-20T01:12:50.538Z,17.71
2019-06-20T01:13:52.788Z,17.66
2019-06-20T01:14:50.392Z,17.48
2019-06-20T01:15:50.319Z,17.39
2019-06-20T01:16:50.246Z,17.44
2019-06-20T01:17:50.350Z,17.40
2019-06-20T01:18:50.074Z,17.43
2019-06-20T01:19:50.001Z,17.39
2019-06-20T01:20:49.929Z,17.29
2019-06-20T01:21:49.885Z,17.36
2019-06-20T01:22:49.882Z,17.33
2019-06-20T01:23:49.716Z,17.33
2019-06-20T01:24:49.639Z,17.32
2019-06-20T01:25:49.564Z,17.39
2019-06-20T01:26:49.490Z,17.26
2019-06-20T01:27:49.422Z,17.25
2019-06-20T01:28:49.344Z,17.35
2019-06-20T01:29:49.279Z,17.38
2019-06-20T01:30:49.199Z,17.44
2019-06-20T01:31:49.127Z,17.46
2019-06-20T01:32:49.055Z,17.43
2019-06-20T01:33:48.980Z,17.50
2019-06-20T01:34:48.913Z,17.40
2019-06-20T01:35:48.833Z,17.51
2019-06-20T01:36:48.761Z,17.58
2019-06-20T01:37:48.689Z,17.57
2019-06-20T01:38:48.817Z,17.67
2019-06-20T01:39:48.542Z,17.67
2019-06-20T01:40:48.470Z,17.69
2019-06-20T01:41:48.733Z,17.67
2019-06-20T01:42:48.325Z,17.63
2019-06-20T01:43:51.053Z,17.69
2019-06-20T01:44:48.179Z,17.70
2019-06-20T01:45:48.106Z,17.55
2019-06-20T01:46:48.034Z,17.53
2019-06-20T01:47:48.016Z,17.54
2019-06-20T01:48:47.905Z,17.57
2019-06-20T01:49:47.820Z,17.55
2019-06-20T01:50:47.742Z,17.53
2019-06-20T01:51:47.668Z,17.50
2019-06-20T01:52:47.595Z,17.54
2019-06-20T01:53:47.675Z,17.51
2019-06-20T01:54:53.719Z,17.44
2019-06-20T01:55:47.378Z,17.48
2019-06-20T01:56:47.303Z,17.39
2019-06-20T01:57:47.262Z,17.30
2019-06-20T01:58:47.160Z,17.29
2019-06-20T01:59:47.093Z,17.43
2019-06-20T02:00:47.013Z,17.44
2019-06-20T02:01:46.941Z,17.39
2019-06-20T02:02:46.871Z,17.40
2019-06-20T02:03:46.823Z,17.46
2019-06-20T02:04:46.726Z,17.44
2019-06-20T02:05:47.054Z,17.39
2019-06-20T02:06:46.577Z,17.55
2019-06-20T02:07:46.504Z,17.54
2019-06-20T02:08:46.433Z,17.38
2019-06-20T02:09:46.357Z,17.39
2019-06-20T02:10:46.286Z,17.35
2019-06-20T02:11:46.220Z,17.35
2019-06-20T02:12:46.141Z,17.28
2019-06-20T02:13:46.168Z,17.39
2019-06-20T02:14:45.996Z,17.38
2019-06-20T02:15:45.948Z,17.40
2019-06-20T02:16:45.859Z,17.44
2019-06-20T02:17:45.778Z,17.43
2019-06-20T02:18:45.732Z,17.47
2019-06-20T02:19:45.633Z,17.39
2019-06-20T02:20:45.560Z,17.38
2019-06-20T02:21:45.484Z,17.54
2019-06-20T02:22:45.420Z,17.54
2019-06-20T02:23:45.338Z,17.57
2019-06-20T02:24:45.266Z,17.51
2019-06-20T02:25:45.201Z,17.53
2019-06-20T02:26:45.120Z,17.51
2019-06-20T02:27:45.076Z,17.60
2019-06-20T02:28:44.974Z,17.55
2019-06-20T02:29:44.901Z,17.60
2019-06-20T02:30:45.163Z,17.63
2019-06-20T02:31:44.756Z,17.60
2019-06-20T02:32:44.686Z,17.50
2019-06-20T02:33:44.711Z,17.38
2019-06-20T02:34:44.539Z,17.28
2019-06-20T02:35:44.474Z,17.28
2019-06-20T02:36:44.395Z,17.18
2019-06-20T02:37:44.328Z,17.23
2019-06-20T02:38:44.450Z,17.14
2019-06-20T02:39:44.175Z,17.10
2019-06-20T02:40:44.163Z,17.18
2019-06-20T02:41:44.030Z,17.18
2019-06-20T02:42:43.957Z,17.11
2019-06-20T02:43:43.882Z,17.10
2019-06-20T02:44:43.811Z,17.13
2019-06-20T02:45:43.737Z,17.11
2019-06-20T02:46:43.665Z,17.10
2019-06-20T02:47:43.638Z,17.10
2019-06-20T02:48:43.618Z,17.08
2019-06-20T02:49:43.446Z,17.08
2019-06-20T02:50:43.372Z,17.10
2019-06-20T02:51:43.299Z,16.98
2019-06-20T02:52:43.227Z,17.02
2019-06-20T02:53:43.155Z,17.18
2019-06-20T02:54:43.081Z,17.07
2019-06-20T02:55:43.013Z,17.08
2019-06-20T02:56:42.933Z,17.20
2019-06-20T02:57:42.885Z,17.07
2019-06-20T02:58:42.790Z,17.13
2019-06-20T02:59:42.714Z,17.11
2019-06-20T03:00:42.641Z,17.20
2019-06-20T03:01:42.569Z,17.13
2019-06-20T03:02:42.498Z,17.17
2019-06-20T03:03:42.423Z,17.08
2019-06-20T03:04:45.488Z,17.08
2019-06-20T03:05:42.480Z,17.17
2019-06-20T03:06:42.205Z,17.20
2019-06-20T03:07:42.131Z,17.13
2019-06-20T03:08:42.058Z,17.08
2019-06-20T03:09:41.987Z,17.08
2019-06-20T03:10:41.913Z,17.13
2019-06-20T03:11:41.839Z,17.07
2019-06-20T03:12:41.968Z,17.10
2019-06-20T03:13:41.697Z,17.20
2019-06-20T03:14:45.325Z,17.18
2019-06-20T03:15:41.650Z,17.20
2019-06-20T03:16:41.475Z,17.13
2019-06-20T03:17:41.436Z,17.21
2019-06-20T03:18:41.331Z,17.25
2019-06-20T03:19:41.274Z,17.29
2019-06-20T03:20:41.191Z,17.28
2019-06-20T03:21:41.111Z,17.25
2019-06-20T03:22:41.045Z,17.13
2019-06-20T03:23:40.965Z,17.17
2019-06-20T03:24:40.891Z,17.10
2019-06-20T03:25:40.818Z,17.20
2019-06-20T03:26:40.766Z,17.25
2019-06-20T03:27:40.673Z,17.11
2019-06-20T03:28:40.600Z,17.05
2019-06-20T03:29:40.528Z,17.03
2019-06-20T03:30:40.488Z,17.13
2019-06-20T03:31:40.512Z,17.05
2019-06-20T03:32:40.309Z,17.05
2019-06-20T03:33:40.236Z,16.95
2019-06-20T03:34:40.163Z,17.00
2019-06-20T03:35:40.090Z,17.11
2019-06-20T03:36:40.016Z,17.03
2019-06-20T03:37:39.945Z,16.99
2019-06-20T03:38:39.871Z,16.93
2019-06-20T03:39:39.798Z,16.98
2019-06-20T03:40:39.726Z,16.95
2019-06-20T03:41:39.700Z,16.92
2019-06-20T03:42:39.579Z,16.99
2019-06-20T03:43:39.530Z,16.99
2019-06-20T03:44:39.436Z,16.98
2019-06-20T03:45:39.394Z,16.96
2019-06-20T03:46:39.289Z,17.07
2019-06-20T03:47:39.242Z,17.10
2019-06-20T03:48:39.141Z,17.10
2019-06-20T03:49:39.068Z,17.17
2019-06-20T03:50:39.005Z,17.17
2019-06-20T03:51:38.922Z,17.21
2019-06-20T03:52:38.861Z,17.17
2019-06-20T03:53:38.777Z,17.18
2019-06-20T03:54:38.703Z,17.20
2019-06-20T03:55:38.629Z,17.11
2019-06-20T03:56:38.557Z,17.08
2019-06-20T03:57:38.484Z,17.15
2019-06-20T03:58:38.418Z,17.26
2019-06-20T03:59:38.365Z,17.18
2019-06-20T04:00:38.271Z,17.26
2019-06-20T04:01:38.225Z,17.25
2019-06-20T04:02:38.121Z,17.11
2019-06-20T04:03:38.060Z,17.17
2019-06-20T04:04:37.976Z,17.15
2019-06-20T04:05:37.913Z,17.21
2019-06-20T04:06:37.863Z,17.17
2019-06-20T04:07:37.774Z,17.28
2019-06-20T04:08:37.688Z,17.32
2019-06-20T04:09:37.610Z,17.29
2019-06-20T04:10:38.075Z,17.36
2019-06-20T04:11:37.466Z,17.40
2019-06-20T04:12:37.392Z,17.51
2019-06-20T04:13:37.323Z,17.60
2019-06-20T04:14:37.249Z,17.66
2019-06-20T04:15:37.175Z,17.81
2019-06-20T04:16:37.101Z,17.82
2019-06-20T04:17:37.033Z,17.84
2019-06-20T04:18:36.962Z,17.85
2019-06-20T04:19:36.883Z,17.98
2019-06-20T04:20:36.812Z,17.96
2019-06-20T04:21:36.738Z,17.96
2019-06-20T04:22:36.665Z,17.92
2019-06-20T04:23:36.693Z,18.00
2019-06-20T04:24:36.521Z,18.04
2019-06-20T04:25:36.460Z,17.96
2019-06-20T04:26:36.376Z,18.06
2019-06-20T04:27:36.303Z,18.09
2019-06-20T04:28:36.232Z,18.06
2019-06-20T04:29:36.157Z,18.04
2019-06-20T04:30:36.086Z,17.95
2019-06-20T04:31:36.013Z,18.02
2019-06-20T04:32:35.941Z,17.96
2019-06-20T04:33:35.869Z,18.02
2019-06-20T04:34:35.796Z,18.03
2019-06-20T04:35:35.727Z,18.03
2019-06-20T04:36:35.687Z,18.00
2019-06-20T04:37:35.581Z,17.94
2019-06-20T04:38:35.508Z,18.03
2019-06-20T04:39:35.434Z,18.06
2019-06-20T04:40:35.365Z,18.07
2019-06-20T04:41:35.320Z,18.09
2019-06-20T04:42:35.219Z,18.14
2019-06-20T04:43:35.147Z,18.31
2019-06-20T04:44:35.075Z,18.27
2019-06-20T04:45:35.855Z,18.22
2019-06-20T04:46:34.959Z,18.18
2019-06-20T04:47:34.856Z,18.22
2019-06-20T04:48:34.783Z,18.22
2019-06-20T04:49:34.711Z,18.24
2019-06-20T04:50:34.644Z,18.19
2019-06-20T04:51:34.567Z,18.25
2019-06-20T04:52:34.497Z,18.28
2019-06-20T04:53:34.423Z,18.29
2019-06-20T04:54:34.350Z,18.28
2019-06-20T04:55:34.279Z,18.34
2019-06-20T04:56:34.209Z,18.21
2019-06-20T04:57:34.134Z,18.34
2019-06-20T04:58:34.064Z,18.31
2019-06-20T04:59:33.990Z,18.21
2019-06-20T05:00:33.917Z,18.29
2019-06-20T05:01:33.849Z,18.40
2019-06-20T05:02:33.776Z,18.31
2019-06-20T05:03:33.931Z,18.40
2019-06-20T05:04:33.628Z,18.34
2019-06-20T05:05:33.558Z,18.40
2019-06-20T05:06:33.486Z,18.29
2019-06-20T05:07:33.422Z,18.34
2019-06-20T05:08:33.340Z,18.42
2019-06-20T05:09:33.269Z,18.37
2019-06-20T05:10:33.197Z,18.35
2019-06-20T05:11:33.124Z,18.39
2019-06-20T05:12:33.051Z,18.28
2019-06-20T05:13:32.981Z,18.34
2019-06-20T05:14:32.908Z,18.46
2019-06-20T05:15:32.836Z,18.35
2019-06-20T05:16:32.775Z,18.37
2019-06-20T05:17:32.692Z,18.42
2019-06-20T05:18:32.619Z,18.53
2019-06-20T05:19:32.551Z,18.62
2019-06-20T05:20:32.475Z,18.62
2019-06-20T05:21:32.405Z,18.67
2019-06-20T05:22:32.330Z,18.59
2019-06-20T05:23:32.258Z,18.67
2019-06-20T05:24:32.186Z,18.62
2019-06-20T05:25:32.114Z,18.67
2019-06-20T05:26:32.042Z,18.73
2019-06-20T05:27:31.970Z,18.68
2019-06-20T05:28:31.900Z,18.76
2019-06-20T05:29:31.826Z,18.74
2019-06-20T05:30:31.810Z,18.71
2019-06-20T05:31:31.683Z,18.65
2019-06-20T05:32:31.610Z,18.69
2019-06-20T05:33:31.540Z,18.69
2019-06-20T05:34:31.468Z,18.61
2019-06-20T05:35:31.402Z,18.68
2019-06-20T05:36:31.324Z,18.76
2019-06-20T05:37:31.252Z,18.79
2019-06-20T05:38:31.179Z,18.84
2019-06-20T05:39:31.112Z,18.83
2019-06-20T05:40:31.035Z,18.92
2019-06-20T05:41:30.962Z,18.99
2019-06-20T05:42:30.904Z,19.11
2019-06-20T05:43:30.819Z,19.17
2019-06-20T05:44:30.767Z,19.24
2019-06-20T05:45:30.676Z,19.43
2019-06-20T05:46:30.633Z,19.48
2019-06-20T05:47:31.483Z,19.53
2019-06-20T05:48:30.461Z,19.64
2019-06-20T05:49:30.407Z,19.64
2019-06-20T05:50:30.969Z,19.71
2019-06-20T05:51:30.245Z,19.76
2019-06-20T05:52:30.173Z,19.75
2019-06-20T05:53:30.106Z,19.91
2019-06-20T05:54:30.032Z,19.91
2019-06-20T05:55:29.961Z,19.91
2019-06-20T05:56:29.887Z,19.95
2019-06-20T05:57:29.825Z,20.09
2019-06-20T05:58:29.771Z,20.13
2019-06-20T05:59:29.673Z,20.20
2019-06-20T06:00:29.605Z,20.26
2019-06-20T06:01:29.532Z,20.20
2019-06-20T06:02:29.461Z,20.26
2019-06-20T06:03:29.389Z,20.37
2019-06-20T06:04:29.392Z,20.33
2019-06-20T06:05:29.246Z,20.26
2019-06-20T06:06:29.974Z,20.30
2019-06-20T06:07:29.106Z,20.34
2019-06-20T06:08:29.036Z,20.28
2019-06-20T06:09:28.965Z,20.42
2019-06-20T06:10:28.892Z,20.40
2019-06-20T06:11:28.828Z,20.46
2019-06-20T06:12:28.754Z,20.42
2019-06-20T06:13:28.680Z,20.47
2019-06-20T06:14:28.609Z,20.57
2019-06-20T06:15:28.539Z,20.57
2019-06-20T06:16:28.598Z,20.57
2019-06-20T06:17:28.404Z,20.42
2019-06-20T06:18:28.328Z,20.51
2019-06-20T06:19:28.255Z,20.59
2019-06-20T06:20:28.216Z,20.64
2019-06-20T06:21:28.114Z,20.69
2019-06-20T06:22:28.048Z,20.66
2019-06-20T06:23:27.972Z,20.76
2019-06-20T06:24:27.902Z,20.87
2019-06-20T06:25:27.842Z,20.74
2019-06-20T06:26:27.762Z,20.74
2019-06-20T06:27:27.691Z,20.62
2019-06-20T06:28:27.722Z,20.62
2019-06-20T06:29:27.549Z,20.66
2019-06-20T06:30:27.478Z,20.72
2019-06-20T06:31:27.441Z,20.84
2019-06-20T06:32:39.451Z,20.79
2019-06-20T06:33:27.267Z,20.91
2019-06-20T06:34:27.302Z,20.94
2019-06-20T06:35:27.135Z,21.09
2019-06-20T06:36:27.056Z,21.08
2019-06-20T06:37:26.985Z,21.17
2019-06-20T06:38:26.914Z,21.17
2019-06-20T06:39:26.843Z,21.17
2019-06-20T06:40:26.781Z,21.14
2019-06-20T06:41:26.702Z,21.17
2019-06-20T06:42:26.631Z,21.19
2019-06-20T06:43:26.561Z,21.26
2019-06-20T06:44:26.490Z,21.30
2019-06-20T06:45:26.435Z,21.38
2019-06-20T06:46:39.938Z,21.35
2019-06-20T06:47:26.280Z,21.35
2019-06-20T06:48:26.209Z,21.23
2019-06-20T06:49:26.138Z,21.27
2019-06-20T06:50:26.070Z,21.27
2019-06-20T06:51:25.999Z,21.16
2019-06-20T06:52:25.931Z,21.16
2019-06-20T06:53:25.860Z,21.27
2019-06-20T06:54:25.792Z,21.36
2019-06-20T06:55:27.711Z,21.21
2019-06-20T06:56:25.647Z,21.29
2019-06-20T06:57:25.577Z,21.31
2019-06-20T06:58:25.511Z,21.24
2019-06-20T06:59:25.437Z,21.21
2019-06-20T07:00:25.365Z,21.38
2019-06-20T07:01:25.297Z,21.45
2019-06-20T07:02:25.226Z,21.46
2019-06-20T07:03:25.154Z,21.66
2019-06-20T07:04:25.084Z,21.74
2019-06-20T07:05:25.020Z,21.64
2019-06-20T07:06:24.944Z,21.64
2019-06-20T07:07:24.873Z,21.61
2019-06-20T07:08:24.805Z,21.67
2019-06-20T07:09:24.733Z,21.72
2019-06-20T07:10:24.687Z,21.89
2019-06-20T07:11:24.594Z,21.89
2019-06-20T07:12:24.527Z,22.01
2019-06-20T07:13:24.453Z,22.04
2019-06-20T07:14:24.392Z,21.92
2019-06-20T07:15:24.314Z,21.91
2019-06-20T07:16:24.244Z,21.76
2019-06-20T07:17:24.174Z,21.81
2019-06-20T07:18:24.105Z,21.78
2019-06-20T07:19:24.035Z,21.92
2019-06-20T07:20:23.964Z,22.01
2019-06-20T07:21:23.895Z,22.07
2019-06-20T07:22:23.828Z,22.19
2019-06-20T07:23:23.760Z,22.30
2019-06-20T07:24:23.693Z,22.30
2019-06-20T07:25:23.617Z,21.97
2019-06-20T07:26:23.563Z,22.02
2019-06-20T07:27:23.477Z,22.01
2019-06-20T07:28:23.409Z,22.16
2019-06-20T07:29:23.342Z,22.12
2019-06-20T07:30:23.270Z,22.19
2019-06-20T07:31:23.199Z,22.17
2019-06-20T07:32:23.131Z,22.34
2019-06-20T07:33:23.062Z,22.28
2019-06-20T07:34:22.992Z,22.32
2019-06-20T07:35:22.922Z,22.31
2019-06-20T07:36:22.852Z,22.24
2019-06-20T07:37:22.806Z,22.31
2019-06-20T07:38:22.713Z,22.44
2019-06-20T07:39:22.642Z,22.52
2019-06-20T07:40:22.580Z,22.59
2019-06-20T07:41:22.503Z,22.71
2019-06-20T07:42:22.445Z,22.52
2019-06-20T07:43:22.364Z,22.63
2019-06-20T07:44:22.323Z,22.65
2019-06-20T07:45:22.227Z,22.65
2019-06-20T07:46:22.256Z,22.65
2019-06-20T07:47:22.090Z,22.74
2019-06-20T07:48:22.020Z,22.77
2019-06-20T07:49:21.949Z,22.92
2019-06-20T07:50:21.900Z,23.04
2019-06-20T07:51:21.811Z,23.14
2019-06-20T07:52:21.742Z,23.22
2019-06-20T07:53:21.673Z,23.26
2019-06-20T07:54:21.604Z,23.31
2019-06-20T07:55:21.533Z,23.31
2019-06-20T07:56:21.467Z,23.18
2019-06-20T07:57:21.396Z,23.38
2019-06-20T07:58:21.328Z,23.42
2019-06-20T07:59:21.260Z,23.38
2019-06-20T08:00:21.190Z,23.11
2019-06-20T08:01:21.120Z,22.96
2019-06-20T08:02:21.051Z,22.72
2019-06-20T08:03:21.002Z,22.65
2019-06-20T08:04:20.912Z,22.68
2019-06-20T08:05:20.847Z,22.63
2019-06-20T08:06:20.775Z,22.62
2019-06-20T08:07:20.705Z,22.50
2019-06-20T08:08:20.637Z,22.63
2019-06-20T08:09:22.158Z,22.69
2019-06-20T08:10:20.499Z,22.75
2019-06-20T08:11:20.434Z,22.62
2019-06-20T08:12:20.358Z,22.54
2019-06-20T08:13:20.298Z,22.52
2019-06-20T08:14:20.249Z,22.53
2019-06-20T08:15:20.269Z,22.62
2019-06-20T08:16:20.097Z,22.65
2019-06-20T08:17:34.482Z,22.62
2019-06-20T08:18:19.944Z,22.71
2019-06-20T08:19:19.904Z,22.81
2019-06-20T08:20:19.804Z,22.83
2019-06-20T08:21:19.739Z,22.94
2019-06-20T08:22:19.670Z,22.93
2019-06-20T08:23:19.595Z,22.94
2019-06-20T08:24:19.533Z,22.94
2019-06-20T08:25:19.457Z,22.96
2019-06-20T08:26:19.387Z,22.78
2019-06-20T08:27:19.315Z,22.72
2019-06-20T08:28:19.252Z,22.72
2019-06-20T08:29:21.060Z,22.72
2019-06-20T08:30:19.108Z,22.72
2019-06-20T08:31:19.038Z,22.83
2019-06-20T08:32:18.970Z,22.79
2019-06-20T08:33:18.911Z,22.71
2019-06-20T08:34:18.830Z,22.78
2019-06-20T08:35:18.760Z,22.81
2019-06-20T08:36:18.698Z,22.93
2019-06-20T08:37:18.631Z,23.05
2019-06-20T08:38:18.553Z,23.05
2019-06-20T08:39:18.480Z,23.11
2019-06-20T08:40:18.618Z,23.09
2019-06-20T08:41:18.365Z,23.17
2019-06-20T08:42:18.276Z,23.42
2019-06-20T08:43:18.206Z,23.52
2019-06-20T08:44:18.130Z,23.65
2019-06-20T08:45:18.062Z,23.11
2019-06-20T08:46:17.993Z,23.05
2019-06-20T08:47:17.921Z,22.97
2019-06-20T08:48:17.853Z,22.93
2019-06-20T08:49:17.790Z,23.08
2019-06-20T08:50:17.715Z,23.17
2019-06-20T08:51:17.644Z,23.37
2019-06-20T08:52:17.573Z,23.45
2019-06-20T08:53:17.618Z,23.67
2019-06-20T08:54:17.436Z,23.64
2019-06-20T08:55:17.365Z,23.53
2019-06-20T08:56:17.298Z,23.46
2019-06-20T08:57:17.227Z,23.55
2019-06-20T08:58:17.164Z,23.46
2019-06-20T08:59:24.370Z,23.56
2019-06-20T09:00:17.018Z,23.35
2019-06-20T09:01:16.952Z,23.24
2019-06-20T09:02:16.880Z,23.42
2019-06-20T09:03:16.911Z,23.37
2019-06-20T09:04:16.745Z,23.60
2019-06-20T09:05:16.681Z,23.78
2019-06-20T09:06:16.618Z,23.78
2019-06-20T09:07:16.533Z,23.90
2019-06-20T09:08:16.465Z,23.86
2019-06-20T09:09:16.393Z,23.90
2019-06-20T09:10:16.332Z,23.83
2019-06-20T09:11:16.255Z,24.05
2019-06-20T09:12:16.192Z,24.01
2019-06-20T09:13:16.128Z,24.04
2019-06-20T09:14:16.047Z,24.22
2019-06-20T09:15:15.976Z,24.20
2019-06-20T09:16:24.377Z,24.15
2019-06-20T09:17:15.840Z,24.10
2019-06-20T09:18:15.771Z,24.05
2019-06-20T09:19:15.701Z,24.04
2019-06-20T09:20:15.631Z,24.19
2019-06-20T09:21:15.563Z,24.02
2019-06-20T09:22:15.495Z,24.04
2019-06-20T09:23:15.451Z,24.25
2019-06-20T09:24:15.356Z,24.27
2019-06-20T09:25:15.412Z,24.26
2019-06-20T09:26:15.219Z,24.35
2019-06-20T09:27:15.150Z,24.45
2019-06-20T09:28:15.080Z,24.60
2019-06-20T09:29:15.011Z,24.79
2019-06-20T09:30:14.943Z,24.66
2019-06-20T09:31:14.883Z,24.63
2019-06-20T09:32:14.805Z,24.60
2019-06-20T09:33:14.737Z,24.59
2019-06-20T09:34:14.684Z,24.64
2019-06-20T09:35:14.596Z,24.56
2019-06-20T09:36:14.530Z,24.50
2019-06-20T09:37:14.460Z,24.45
2019-06-20T09:38:14.393Z,24.25
2019-06-20T09:39:14.323Z,24.16
2019-06-20T09:40:14.307Z,24.16
2019-06-20T09:41:14.187Z,24.17
2019-06-20T09:42:14.139Z,24.26
2019-06-20T09:43:26.758Z,24.22
2019-06-20T09:44:13.980Z,24.27
2019-06-20T09:45:13.911Z,24.40
2019-06-20T09:46:13.844Z,24.37
2019-06-20T09:47:13.775Z,24.54
2019-06-20T09:48:13.704Z,24.66
2019-06-20T09:49:13.637Z,24.95
2019-06-20T09:50:13.572Z,25.00
2019-06-20T09:51:13.499Z,25.02
2019-06-20T09:52:13.432Z,25.02
2019-06-20T09:53:13.366Z,24.85
2019-06-20T09:54:13.296Z,24.86
2019-06-20T09:55:13.226Z,24.93
2019-06-20T09:56:13.158Z,25.01
2019-06-20T09:57:13.090Z,25.04
2019-06-20T09:58:13.022Z,25.02
2019-06-20T09:59:26.897Z,24.86
2019-06-20T10:00:12.885Z,24.75
2019-06-20T10:01:12.919Z,24.76
2019-06-20T10:02:12.750Z,24.79
2019-06-20T10:03:12.725Z,24.78
2019-06-20T10:04:12.614Z,24.75
2019-06-20T10:05:12.548Z,24.76
2019-06-20T10:06:14.418Z,24.63
2019-06-20T10:07:12.409Z,24.69
2019-06-20T10:08:12.340Z,24.45
2019-06-20T10:09:12.272Z,24.45
2019-06-20T10:10:12.206Z,24.45
2019-06-20T10:11:12.137Z,24.34
2019-06-20T10:12:12.069Z,24.26
2019-06-20T10:13:12.001Z,24.19
2019-06-20T10:14:11.937Z,24.15
2019-06-20T10:15:11.866Z,24.11
2019-06-20T10:16:11.796Z,24.22
2019-06-20T10:17:11.728Z,24.26
2019-06-20T10:18:11.660Z,24.44
2019-06-20T10:19:13.368Z,24.44
2019-06-20T10:20:11.531Z,24.64
2019-06-20T10:21:11.455Z,24.76
2019-06-20T10:22:11.404Z,24.79
2019-06-20T10:23:11.319Z,24.56
2019-06-20T10:24:11.249Z,24.82
2019-06-20T10:25:11.185Z,25.05
2019-06-20T10:26:11.113Z,24.90
2019-06-20T10:27:11.044Z,25.09
2019-06-20T10:28:10.978Z,25.35
2019-06-20T10:29:10.909Z,25.53
2019-06-20T10:30:14.557Z,25.64
2019-06-20T10:31:10.770Z,25.71
2019-06-20T10:32:10.702Z,25.92
2019-06-20T10:33:11.043Z,26.07
2019-06-20T10:34:10.580Z,26.05
2019-06-20T10:36:50.645Z,26.01
2019-06-20T10:37:50.528Z,25.97
2019-06-20T10:38:50.449Z,25.99
2019-06-20T10:39:50.291Z,25.74
2019-06-20T10:40:50.223Z,25.50
2019-06-20T10:41:50.341Z,25.32
2019-06-20T10:42:50.310Z,25.22
2019-06-20T10:43:50.019Z,25.20
2019-06-20T10:44:49.952Z,25.19
2019-06-20T10:45:49.886Z,25.40
2019-06-20T10:46:49.817Z,25.35
2019-06-20T10:47:50.927Z,25.28
2019-06-20T10:48:50.068Z,25.17
2019-06-20T10:49:50.399Z,24.76
2019-06-20T10:50:49.855Z,24.53
2019-06-20T10:51:49.665Z,24.57
2019-06-20T10:52:50.119Z,24.53
2019-06-20T10:53:49.345Z,24.54
2019-06-20T10:54:49.350Z,24.47
2019-06-20T10:55:49.208Z,24.53
2019-06-20T10:56:49.141Z,24.40
2019-06-20T10:57:49.879Z,24.27
2019-06-20T10:58:49.019Z,24.37
2019-06-20T10:59:48.938Z,24.26
2019-06-20T11:00:50.306Z,24.15
2019-06-20T11:01:48.804Z,24.10
2019-06-20T11:02:49.095Z,24.07
2019-06-20T11:03:49.916Z,23.92
2019-06-20T11:04:49.747Z,23.93
2019-06-20T11:05:49.803Z,23.82
2019-06-20T11:06:49.533Z,23.87
2019-06-20T11:07:49.793Z,23.90
2019-06-20T11:08:49.410Z,23.83
2019-06-20T11:09:49.364Z,23.79
2019-06-20T11:10:49.273Z,23.72
2019-06-20T11:11:49.062Z,23.71
2019-06-20T11:12:53.791Z,23.74
2019-06-20T11:13:48.601Z,23.64
2019-06-20T11:14:48.469Z,23.58
2019-06-20T11:15:48.302Z,23.64
2019-06-20T11:16:49.201Z,23.56
2019-06-20T11:17:48.427Z,23.40
2019-06-20T11:18:48.775Z,23.34
2019-06-20T11:19:48.092Z,23.09
2019-06-20T11:20:48.724Z,22.96
2019-06-20T11:21:47.745Z,23.04
2019-06-20T11:22:47.947Z,22.92
2019-06-20T11:23:47.470Z,22.77
2019-06-20T11:24:47.459Z,22.74
2019-06-20T11:25:48.290Z,22.62
2019-06-20T11:26:47.981Z,22.53
2019-06-20T11:27:47.367Z,22.53
2019-06-20T11:28:46.947Z,22.53
2019-06-20T11:29:46.877Z,22.60
2019-06-20T11:30:59.279Z,22.69
2019-06-20T11:31:49.310Z,22.74
2019-06-20T11:32:48.619Z,22.71
2019-06-20T11:33:46.621Z,22.68
2019-06-20T11:34:47.571Z,22.83
2019-06-20T11:35:47.888Z,22.84
2019-06-20T11:36:46.813Z,22.84
2019-06-20T11:37:47.221Z,22.79
2019-06-20T11:38:46.902Z,22.93
2019-06-20T11:39:47.416Z,23.04
2019-06-20T11:40:46.115Z,23.04
2019-06-20T11:41:46.048Z,22.89
2019-06-20T11:42:46.912Z,22.99
2019-06-20T11:43:46.864Z,23.11
2019-06-20T11:44:45.843Z,23.05
2019-06-20T11:45:46.948Z,23.17
2019-06-20T11:46:47.079Z,23.09
2019-06-20T11:47:47.181Z,22.97
2019-06-20T11:48:47.047Z,22.97
2019-06-20T11:49:46.939Z,22.97
2019-06-20T11:50:46.530Z,23.11
2019-06-20T11:51:45.354Z,23.29
2019-06-20T11:52:45.877Z,23.56
2019-06-20T11:53:45.216Z,23.68
2019-06-20T11:54:45.146Z,23.75
2019-06-20T11:55:45.085Z,23.71
2019-06-20T11:56:45.010Z,23.72
2019-06-20T11:57:45.004Z,23.83
2019-06-20T11:58:44.871Z,23.89
2019-06-20T11:59:44.802Z,23.83
2019-06-20T12:01:02.221Z,24.00
2019-06-20T12:01:44.949Z,23.93
2019-06-20T12:02:46.024Z,24.04
2019-06-20T12:03:44.644Z,24.25
2019-06-20T12:04:44.938Z,24.27
2019-06-20T12:05:44.829Z,24.34
2019-06-20T12:06:44.961Z,24.42
2019-06-20T12:07:45.607Z,24.40
2019-06-20T12:08:45.260Z,24.30
2019-06-20T12:09:46.947Z,24.29
2019-06-20T12:10:45.160Z,24.20
2019-06-20T12:11:44.540Z,24.34
2019-06-20T12:12:44.740Z,23.85
2019-06-20T12:13:44.472Z,23.87
2019-06-20T12:14:44.280Z,23.89
2019-06-20T12:15:44.460Z,24.40
2019-06-20T12:16:44.376Z,25.32
2019-06-20T12:17:45.166Z,26.11
2019-06-20T12:19:56.079Z,27.49
2019-06-20T12:20:55.968Z,28.10
2019-06-20T12:21:55.902Z,28.50
2019-06-20T12:22:55.836Z,28.26
2019-06-20T12:23:55.774Z,28.54
2019-06-20T12:24:55.761Z,28.29
2019-06-20T12:25:55.645Z,27.98
2019-06-20T12:26:56.995Z,28.02
2019-06-20T12:27:56.937Z,28.57
2019-06-20T12:28:55.459Z,28.39
2019-06-20T12:30:38.421Z,28.75
2019-06-20T12:31:37.827Z,28.31
2019-06-20T12:32:39.138Z,28.07
2019-06-20T12:33:39.092Z,28.32
2019-06-20T12:34:38.890Z,28.57
2019-06-20T12:37:17.580Z,28.46
2019-06-20T12:38:17.518Z,28.76
2019-06-20T12:40:48.062Z,28.90
2019-06-20T12:41:50.320Z,28.73
2019-06-20T12:42:47.374Z,28.31
2019-06-20T12:43:48.320Z,27.91
2019-06-20T12:44:47.211Z,27.45
2019-06-20T12:45:47.399Z,27.36
2019-06-20T12:46:47.114Z,27.39
2019-06-20T12:47:47.220Z,27.50
2019-06-20T12:48:49.589Z,27.61
2019-06-20T12:49:48.126Z,27.35
2019-06-20T12:50:47.581Z,26.92
2019-06-20T12:51:47.102Z,26.65
2019-06-20T12:52:47.577Z,26.38
2019-06-20T12:53:46.865Z,26.28
2019-06-20T12:54:47.034Z,26.27
2019-06-20T12:55:47.514Z,25.96
2019-06-20T12:56:46.477Z,25.96
2019-06-20T12:57:46.599Z,25.96
2019-06-20T12:58:46.785Z,25.99
2019-06-20T13:00:28.858Z,26.16